sensor_id;sensor_type;location;lat;lon;timestamp;pressure;altitude;pressure_sealevel;temperature;humidity
51617;BME280;37697;52.588;13.394;2022-09-02T00:01:48;101778.69;;;11.22;69.58
51617;BME280;37697;52.588;13.394;2022-09-02T00:06:51;101776.50;;;11.22;69.80
51617;BME280;37697;52.588;13.394;2022-09-02T00:11:55;101771.80;;;11.22;70.00
51617;BME280;37697;52.588;13.394;2022-09-02T00:16:56;101769.61;;;11.24;70.32
51617;BME280;37697;52.588;13.394;2022-09-02T00:21:59;101769.84;;;11.30;70.65
51617;BME280;37697;52.588;13.394;2022-09-02T00:27:00;101762.92;;;11.35;70.89
51617;BME280;37697;52.588;13.394;2022-09-02T00:32:02;101766.48;;;11.44;71.16
51617;BME280;37697;52.588;13.394;2022-09-02T00:37:03;101757.61;;;11.49;71.39
51617;BME280;37697;52.588;13.394;2022-09-02T00:42:04;101757.84;;;11.55;71.69
51617;BME280;37697;52.588;13.394;2022-09-02T00:47:06;101766.37;;;11.59;71.85
51617;BME280;37697;52.588;13.394;2022-09-02T00:52:12;101753.64;;;11.66;71.89
51617;BME280;37697;52.588;13.394;2022-09-02T00:57:18;101751.95;;;11.72;72.15
51617;BME280;37697;52.588;13.394;2022-09-02T01:02:22;101752.20;;;11.76;72.16
51617;BME280;37697;52.588;13.394;2022-09-02T01:07:28;101755.74;;;11.82;72.25
51617;BME280;37697;52.588;13.394;2022-09-02T01:12:31;101746.05;;;11.87;72.09
51617;BME280;37697;52.588;13.394;2022-09-02T01:17:32;101744.66;;;11.92;72.24
51617;BME280;37697;52.588;13.394;2022-09-02T01:22:34;101739.11;;;11.94;72.17
51617;BME280;37697;52.588;13.394;2022-09-02T01:27:35;101737.44;;;11.96;72.23
51617;BME280;37697;52.588;13.394;2022-09-02T01:32:36;101738.82;;;11.99;72.02
51617;BME280;37697;52.588;13.394;2022-09-02T01:37:37;101739.06;;;12.02;71.89
51617;BME280;37697;52.588;13.394;2022-09-02T01:42:40;101737.36;;;12.06;71.91
51617;BME280;37697;52.588;13.394;2022-09-02T01:47:41;101729.36;;;12.07;71.92
51617;BME280;37697;52.588;13.394;2022-09-02T01:52:42;101738.98;;;12.10;71.82
51617;BME280;37697;52.588;13.394;2022-09-02T01:57:43;101734.03;;;12.09;71.97
51617;BME280;37697;52.588;13.394;2022-09-02T02:02:44;101733.47;;;12.10;71.92
51617;BME280;37697;52.588;13.394;2022-09-02T02:07:45;101732.09;;;12.10;71.76
51617;BME280;37697;52.588;13.394;2022-09-02T02:12:46;101726.55;;;12.12;71.87
51617;BME280;37697;52.588;13.394;2022-09-02T02:17:47;101725.71;;;12.12;71.92
51617;BME280;37697;52.588;13.394;2022-09-02T02:22:48;101721.08;;;12.07;71.92
51617;BME280;37697;52.588;13.394;2022-09-02T02:27:49;101716.41;;;12.05;72.07
51617;BME280;37697;52.588;13.394;2022-09-02T02:32:50;101721.97;;;12.00;72.16
51617;BME280;37697;52.588;13.394;2022-09-02T02:37:51;101722.26;;;11.96;72.23
51617;BME280;37697;52.588;13.394;2022-09-02T02:42:53;101716.20;;;11.94;72.31
51617;BME280;37697;52.588;13.394;2022-09-02T02:47:54;101717.30;;;11.95;72.35
51617;BME280;37697;52.588;13.394;2022-09-02T02:52:55;101726.11;;;11.98;72.42
51617;BME280;37697;52.588;13.394;2022-09-02T02:57:56;101716.73;;;11.96;72.37
51617;BME280;37697;52.588;13.394;2022-09-02T03:02:59;101714.27;;;11.94;72.38
51617;BME280;37697;52.588;13.394;2022-09-02T03:08:08;101717.03;;;11.89;72.35
51617;BME280;37697;52.588;13.394;2022-09-02T03:13:10;101718.73;;;11.85;72.46
51617;BME280;37697;52.588;13.394;2022-09-02T03:18:11;101720.68;;;11.82;72.44
51617;BME280;37697;52.588;13.394;2022-09-02T03:23:12;101719.61;;;11.78;72.49
51617;BME280;37697;52.588;13.394;2022-09-02T03:28:13;101709.42;;;11.76;72.39
51617;BME280;37697;52.588;13.394;2022-09-02T03:33:14;101711.13;;;11.72;72.44
51617;BME280;37697;52.588;13.394;2022-09-02T03:38:15;101706.73;;;11.68;72.48
51617;BME280;37697;52.588;13.394;2022-09-02T03:43:16;101702.34;;;11.65;72.50
51617;BME280;37697;52.588;13.394;2022-09-02T03:48:17;101704.58;;;11.60;72.49
51617;BME280;37697;52.588;13.394;2022-09-02T03:53:18;101699.38;;;11.56;72.51
51617;BME280;37697;52.588;13.394;2022-09-02T03:58:18;101704.92;;;11.51;72.61
51617;BME280;37697;52.588;13.394;2022-09-02T04:03:19;101696.11;;;11.46;72.52
51617;BME280;37697;52.588;13.394;2022-09-02T04:08:20;101699.19;;;11.42;72.65
51617;BME280;37697;52.588;13.394;2022-09-02T04:13:21;101700.84;;;11.38;72.74
51617;BME280;37697;52.588;13.394;2022-09-02T04:18:22;101708.61;;;11.33;72.80
51617;BME280;37697;52.588;13.394;2022-09-02T04:23:23;101709.70;;;11.32;72.97
51617;BME280;37697;52.588;13.394;2022-09-02T04:28:24;101710.58;;;11.25;72.93
51617;BME280;37697;52.588;13.394;2022-09-02T04:33:25;101711.98;;;11.20;72.92
51617;BME280;37697;52.588;13.394;2022-09-02T04:38:25;101710.09;;;11.13;73.08
51617;BME280;37697;52.588;13.394;2022-09-02T04:43:27;101709.30;;;11.07;73.12
51617;BME280;37697;52.588;13.394;2022-09-02T04:48:27;101717.31;;;11.04;73.16
51617;BME280;37697;52.588;13.394;2022-09-02T04:53:28;101718.43;;;11.00;73.23
51617;BME280;37697;52.588;13.394;2022-09-02T04:58:29;101715.92;;;11.01;73.40
51617;BME280;37697;52.588;13.394;2022-09-02T05:03:30;101719.81;;;11.00;73.46
51617;BME280;37697;52.588;13.394;2022-09-02T05:08:31;101723.66;;;11.02;73.65
51617;BME280;37697;52.588;13.394;2022-09-02T05:13:32;101719.24;;;11.00;73.75
51617;BME280;37697;52.588;13.394;2022-09-02T05:18:32;101718.97;;;11.02;73.82
51617;BME280;37697;52.588;13.394;2022-09-02T05:23:33;101723.36;;;11.06;73.91
51617;BME280;37697;52.588;13.394;2022-09-02T05:28:35;101721.14;;;11.10;74.04
51617;BME280;37697;52.588;13.394;2022-09-02T05:33:36;101733.22;;;11.19;74.04
51617;BME280;37697;52.588;13.394;2022-09-02T05:38:41;101733.45;;;11.28;73.88
51617;BME280;37697;52.588;13.394;2022-09-02T05:43:42;101728.42;;;11.38;73.82
51617;BME280;37697;52.588;13.394;2022-09-02T05:48:45;101733.91;;;11.46;73.81
51617;BME280;37697;52.588;13.394;2022-09-02T05:54:05;101725.86;;;11.54;73.68
51617;BME280;37697;52.588;13.394;2022-09-02T05:59:07;101721.37;;;11.61;73.60
51617;BME280;37697;52.588;13.394;2022-09-02T06:04:09;101725.20;;;11.70;73.67
51617;BME280;37697;52.588;13.394;2022-09-02T06:09:13;101727.89;;;11.78;73.53
51617;BME280;37697;52.588;13.394;2022-09-02T06:14:18;101727.01;;;11.88;73.49
51617;BME280;37697;52.588;13.394;2022-09-02T06:19:22;101736.30;;;12.02;73.36
51617;BME280;37697;52.588;13.394;2022-09-02T06:24:25;101725.95;;;12.16;73.44
51617;BME280;37697;52.588;13.394;2022-09-02T06:29:27;101721.72;;;12.28;73.12
51617;BME280;37697;52.588;13.394;2022-09-02T06:34:28;101730.92;;;12.45;73.08
51617;BME280;37697;52.588;13.394;2022-09-02T06:39:29;101729.05;;;12.65;73.14
51617;BME280;37697;52.588;13.394;2022-09-02T06:44:29;101734.07;;;12.87;72.91
51617;BME280;37697;52.588;13.394;2022-09-02T06:54:51;101727.99;;;13.31;72.39
51617;BME280;37697;52.588;13.394;2022-09-02T06:59:54;101724.20;;;13.45;72.15
51617;BME280;37697;52.588;13.394;2022-09-02T07:04:54;101717.29;;;13.64;72.27
51617;BME280;37697;52.588;13.394;2022-09-02T07:10:12;101712.03;;;13.98;72.17
51617;BME280;37697;52.588;13.394;2022-09-02T07:15:13;101717.11;;;14.24;71.98
51617;BME280;37697;52.588;13.394;2022-09-02T07:20:15;101708.61;;;14.51;71.37
51617;BME280;37697;52.588;13.394;2022-09-02T07:25:17;101719.52;;;14.75;71.08
51617;BME280;37697;52.588;13.394;2022-09-02T07:30:18;101724.94;;;14.96;71.04
51617;BME280;37697;52.588;13.394;2022-09-02T07:35:19;101719.90;;;15.24;70.82
51617;BME280;37697;52.588;13.394;2022-09-02T07:40:20;101714.45;;;15.44;70.29
51617;BME280;37697;52.588;13.394;2022-09-02T07:45:21;101718.95;;;15.65;69.94
51617;BME280;37697;52.588;13.394;2022-09-02T07:50:23;101715.55;;;15.82;69.39
51617;BME280;37697;52.588;13.394;2022-09-02T07:55:27;101718.99;;;15.99;69.22
51617;BME280;37697;52.588;13.394;2022-09-02T08:00:30;101715.20;;;16.17;68.81
51617;BME280;37697;52.588;13.394;2022-09-02T08:05:32;101714.73;;;16.35;68.62
51617;BME280;37697;52.588;13.394;2022-09-02T08:10:34;101718.09;;;16.55;68.07
51617;BME280;37697;52.588;13.394;2022-09-02T08:15:36;101719.88;;;16.71;67.61
51617;BME280;37697;52.588;13.394;2022-09-02T08:20:38;101720.08;;;16.83;67.15
51617;BME280;37697;52.588;13.394;2022-09-02T08:25:39;101724.44;;;16.98;66.89
51617;BME280;37697;52.588;13.394;2022-09-02T08:30:40;101717.84;;;17.14;66.56
51617;BME280;37697;52.588;13.394;2022-09-02T08:35:41;101711.72;;;17.32;65.81
51617;BME280;37697;52.588;13.394;2022-09-02T08:40:44;101711.06;;;17.52;65.43
51617;BME280;37697;52.588;13.394;2022-09-02T08:45:46;101711.48;;;17.74;65.20
51617;BME280;37697;52.588;13.394;2022-09-02T08:50:49;101705.44;;;17.98;64.71
51617;BME280;37697;52.588;13.394;2022-09-02T08:55:53;101707.17;;;18.21;63.66
51617;BME280;37697;52.588;13.394;2022-09-02T09:01:19;101701.27;;;18.46;63.10
51617;BME280;37697;52.588;13.394;2022-09-02T09:07:02;101689.81;;;18.77;62.32
51617;BME280;37697;52.588;13.394;2022-09-02T09:12:53;101686.12;;;19.09;61.79
51617;BME280;37697;52.588;13.394;2022-09-02T09:18:01;101663.66;;;19.47;59.00
51617;BME280;37697;52.588;13.394;2022-09-02T09:23:24;101663.66;;;19.47;59.00
51617;BME280;37697;52.588;13.394;2022-09-02T09:28:47;101681.33;;;19.87;58.40
51617;BME280;37697;52.588;13.394;2022-09-02T09:34:07;101676.62;;;20.13;56.54
51617;BME280;37697;52.588;13.394;2022-09-02T09:39:21;101671.46;;;20.02;55.04
51617;BME280;37697;52.588;13.394;2022-09-02T09:49:37;101668.85;;;20.43;55.09
51617;BME280;37697;52.588;13.394;2022-09-02T09:54:38;101658.73;;;20.75;54.28
51617;BME280;37697;52.588;13.394;2022-09-02T09:59:41;101658.73;;;20.94;53.96
51617;BME280;37697;52.588;13.394;2022-09-02T10:04:46;101648.83;;;20.72;53.44
51617;BME280;37697;52.588;13.394;2022-09-02T10:09:47;101651.85;;;20.42;52.83
51617;BME280;37697;52.588;13.394;2022-09-02T10:14:48;101652.56;;;20.70;52.74
51617;BME280;37697;52.588;13.394;2022-09-02T10:31:18;101646.19;;;21.22;51.34
51617;BME280;37697;52.588;13.394;2022-09-02T10:42:13;101627.92;;;21.69;50.82
51617;BME280;37697;52.588;13.394;2022-09-02T10:47:23;101618.72;;;21.90;50.14
51617;BME280;37697;52.588;13.394;2022-09-02T10:52:46;101626.39;;;21.93;48.96
51617;BME280;37697;52.588;13.394;2022-09-02T10:57:57;101625.80;;;21.78;48.04
51617;BME280;37697;52.588;13.394;2022-09-02T11:08:19;101615.88;;;21.52;47.71
51617;BME280;37697;52.588;13.394;2022-09-02T11:13:36;101618.72;;;21.46;47.35
51617;BME280;37697;52.588;13.394;2022-09-02T11:18:51;101607.98;;;21.86;48.09
51617;BME280;37697;52.588;13.394;2022-09-02T11:29:21;101608.17;;;21.49;45.13
51617;BME280;37697;52.588;13.394;2022-09-02T11:34:34;101603.73;;;21.42;45.38
51617;BME280;37697;52.588;13.394;2022-09-02T11:39:39;101602.32;;;21.20;45.37
51617;BME280;37697;52.588;13.394;2022-09-02T11:44:52;101602.14;;;21.35;45.88
51617;BME280;37697;52.588;13.394;2022-09-02T11:55:38;101589.66;;;22.37;44.77
51617;BME280;37697;52.588;13.394;2022-09-02T12:06:13;101579.88;;;22.30;43.90
51617;BME280;37697;52.588;13.394;2022-09-02T12:16:44;101567.90;;;22.40;43.68
51617;BME280;37697;52.588;13.394;2022-09-02T12:37:56;101554.84;;;21.46;43.25
51617;BME280;37697;52.588;13.394;2022-09-02T12:43:02;101554.61;;;21.38;44.12
51617;BME280;37697;52.588;13.394;2022-09-02T12:48:13;101545.91;;;21.28;44.01
51617;BME280;37697;52.588;13.394;2022-09-02T12:58:38;101535.80;;;20.95;43.40
51617;BME280;37697;52.588;13.394;2022-09-02T13:03:50;101532.09;;;20.85;43.72
51617;BME280;37697;52.588;13.394;2022-09-02T13:15:22;101516.54;;;21.50;43.65
51617;BME280;37697;52.588;13.394;2022-09-02T13:31:24;101505.96;;;22.48;42.53
51617;BME280;37697;52.588;13.394;2022-09-02T13:36:29;101512.30;;;22.45;41.75
51617;BME280;37697;52.588;13.394;2022-09-02T13:41:37;101506.57;;;22.16;42.10
51617;BME280;37697;52.588;13.394;2022-09-02T13:46:46;101504.29;;;22.38;42.03
51617;BME280;37697;52.588;13.394;2022-09-02T13:51:51;101496.78;;;22.42;41.12
51617;BME280;37697;52.588;13.394;2022-09-02T13:56:53;101498.16;;;22.32;41.58
51617;BME280;37697;52.588;13.394;2022-09-02T14:01:54;101489.81;;;22.10;41.48
51617;BME280;37697;52.588;13.394;2022-09-02T14:06:54;101484.95;;;21.91;42.12
51617;BME280;37697;52.588;13.394;2022-09-02T14:11:57;101483.31;;;21.74;42.15
51617;BME280;37697;52.588;13.394;2022-09-02T14:17:25;101472.38;;;21.69;41.41
51617;BME280;37697;52.588;13.394;2022-09-02T14:22:27;101467.06;;;21.80;41.24
51617;BME280;37697;52.588;13.394;2022-09-02T14:27:30;101469.66;;;22.04;40.97
51617;BME280;37697;52.588;13.394;2022-09-02T14:32:31;101467.38;;;22.20;41.38
51617;BME280;37697;52.588;13.394;2022-09-02T14:37:31;101456.58;;;21.86;41.15
51617;BME280;37697;52.588;13.394;2022-09-02T14:42:32;101456.58;;;21.86;41.15
51617;BME280;37697;52.588;13.394;2022-09-02T14:47:36;101457.28;;;21.73;41.38
51617;BME280;37697;52.588;13.394;2022-09-02T14:52:43;101453.67;;;21.73;41.45
51617;BME280;37697;52.588;13.394;2022-09-02T14:57:46;101446.49;;;21.66;40.98
51617;BME280;37697;52.588;13.394;2022-09-02T15:02:52;101454.54;;;21.45;41.27
51617;BME280;37697;52.588;13.394;2022-09-02T15:07:53;101449.14;;;21.52;41.86
51617;BME280;37697;52.588;13.394;2022-09-02T15:12:55;101443.60;;;21.62;41.67
51617;BME280;37697;52.588;13.394;2022-09-02T15:17:58;101438.56;;;21.62;41.63
51617;BME280;37697;52.588;13.394;2022-09-02T15:23:00;101443.81;;;21.47;41.26
51617;BME280;37697;52.588;13.394;2022-09-02T15:28:01;101440.20;;;21.40;41.37
51617;BME280;37697;52.588;13.394;2022-09-02T15:33:03;101438.80;;;21.40;41.43
51617;BME280;37697;52.588;13.394;2022-09-02T15:38:05;101437.19;;;21.39;40.97
51617;BME280;37697;52.588;13.394;2022-09-02T15:43:06;101435.25;;;21.34;40.83
51617;BME280;37697;52.588;13.394;2022-09-02T15:48:07;101423.02;;;21.26;40.72
51617;BME280;37697;52.588;13.394;2022-09-02T15:53:07;101418.17;;;21.23;40.65
51617;BME280;37697;52.588;13.394;2022-09-02T15:58:08;101425.38;;;21.24;40.87
51617;BME280;37697;52.588;13.394;2022-09-02T16:03:09;101423.27;;;21.05;40.48
51617;BME280;37697;52.588;13.394;2022-09-02T16:08:10;101435.36;;;20.93;40.83
51617;BME280;37697;52.588;13.394;2022-09-02T16:13:11;101432.12;;;20.85;41.02
51617;BME280;37697;52.588;13.394;2022-09-02T16:18:12;101437.07;;;20.76;40.47
51617;BME280;37697;52.588;13.394;2022-09-02T16:23:13;101433.72;;;20.70;39.91
51617;BME280;37697;52.588;13.394;2022-09-02T16:28:13;101429.31;;;20.63;40.24
51617;BME280;37697;52.588;13.394;2022-09-02T16:33:15;101429.16;;;20.59;40.51
51617;BME280;37697;52.588;13.394;2022-09-02T16:38:15;101426.50;;;20.57;40.72
51617;BME280;37697;52.588;13.394;2022-09-02T16:43:16;101420.00;;;20.46;41.07
51617;BME280;37697;52.588;13.394;2022-09-02T16:48:17;101416.98;;;20.39;41.23
51617;BME280;37697;52.588;13.394;2022-09-02T16:53:19;101415.52;;;20.30;41.19
51617;BME280;37697;52.588;13.394;2022-09-02T16:58:20;101410.97;;;20.19;41.33
51617;BME280;37697;52.588;13.394;2022-09-02T17:03:21;101408.69;;;20.08;41.66
51617;BME280;37697;52.588;13.394;2022-09-02T17:08:21;101408.92;;;19.97;41.74
51617;BME280;37697;52.588;13.394;2022-09-02T17:13:22;101410.57;;;19.86;41.80
51617;BME280;37697;52.588;13.394;2022-09-02T17:18:23;101413.83;;;19.76;42.17
51617;BME280;37697;52.588;13.394;2022-09-02T17:23:23;101412.41;;;19.63;41.94
51617;BME280;37697;52.588;13.394;2022-09-02T17:28:24;101411.59;;;19.50;42.21
51617;BME280;37697;52.588;13.394;2022-09-02T17:33:26;101421.36;;;19.38;42.50
51617;BME280;37697;52.588;13.394;2022-09-02T17:38:27;101416.19;;;19.22;42.88
51617;BME280;37697;52.588;13.394;2022-09-02T17:43:27;101416.75;;;19.09;43.10
51617;BME280;37697;52.588;13.394;2022-09-02T17:48:29;101415.91;;;18.96;43.46
51617;BME280;37697;52.588;13.394;2022-09-02T17:53:29;101416.45;;;18.83;43.73
51617;BME280;37697;52.588;13.394;2022-09-02T17:58:39;101416.13;;;18.70;44.15
51617;BME280;37697;52.588;13.394;2022-09-02T18:03:43;101420.50;;;18.59;44.67
51617;BME280;37697;52.588;13.394;2022-09-02T18:09:00;101421.70;;;18.43;44.85
51617;BME280;37697;52.588;13.394;2022-09-02T18:30:28;101431.23;;;17.82;45.37
51617;BME280;37697;52.588;13.394;2022-09-02T18:46:56;101441.39;;;17.48;46.69
51617;BME280;37697;52.588;13.394;2022-09-02T18:51:59;101442.51;;;17.32;47.09
51617;BME280;37697;52.588;13.394;2022-09-02T18:57:07;101449.01;;;17.21;47.76
51617;BME280;37697;52.588;13.394;2022-09-02T19:02:27;101455.84;;;17.00;48.21
51617;BME280;37697;52.588;13.394;2022-09-02T19:07:30;101458.13;;;16.81;48.76
51617;BME280;37697;52.588;13.394;2022-09-02T19:12:49;101466.56;;;16.61;49.49
51617;BME280;37697;52.588;13.394;2022-09-02T19:17:50;101464.33;;;16.43;49.93
51617;BME280;37697;52.588;13.394;2022-09-02T19:22:52;101467.66;;;16.25;50.58
51617;BME280;37697;52.588;13.394;2022-09-02T19:27:57;101471.88;;;16.05;51.05
51617;BME280;37697;52.588;13.394;2022-09-02T19:33:04;101469.84;;;15.88;51.55
51617;BME280;37697;52.588;13.394;2022-09-02T19:38:06;101482.19;;;15.73;52.00
51617;BME280;37697;52.588;13.394;2022-09-02T19:43:08;101481.80;;;15.57;52.41
51617;BME280;37697;52.588;13.394;2022-09-02T19:48:13;101486.94;;;15.41;52.89
51617;BME280;37697;52.588;13.394;2022-09-02T19:53:23;101474.61;;;15.25;53.14
51617;BME280;37697;52.588;13.394;2022-09-02T19:58:27;101478.77;;;15.13;53.50
51617;BME280;37697;52.588;13.394;2022-09-02T20:03:27;101486.34;;;14.99;53.84
51617;BME280;37697;52.588;13.394;2022-09-02T20:08:29;101480.27;;;14.86;54.00
51617;BME280;37697;52.588;13.394;2022-09-02T20:13:34;101477.38;;;14.68;54.30
51617;BME280;37697;52.588;13.394;2022-09-02T20:18:38;101474.85;;;14.55;54.79
51617;BME280;37697;52.588;13.394;2022-09-02T20:23:43;101477.30;;;14.46;54.98
51617;BME280;37697;52.588;13.394;2022-09-02T20:55:55;101498.05;;;14.20;55.39
51617;BME280;37697;52.588;13.394;2022-09-02T21:01:07;101503.27;;;14.11;55.57
51617;BME280;37697;52.588;13.394;2022-09-02T21:06:09;101510.02;;;14.04;55.40
51617;BME280;37697;52.588;13.394;2022-09-02T21:11:10;101514.51;;;14.03;55.61
51617;BME280;37697;52.588;13.394;2022-09-02T21:16:19;101508.13;;;14.02;55.58
51617;BME280;37697;52.588;13.394;2022-09-02T21:21:40;101514.23;;;14.02;55.84
51617;BME280;37697;52.588;13.394;2022-09-02T21:26:52;101511.30;;;13.96;55.94
51617;BME280;37697;52.588;13.394;2022-09-02T21:32:08;101504.17;;;13.92;56.17
51617;BME280;37697;52.588;13.394;2022-09-02T21:37:11;101505.63;;;13.90;55.98
51617;BME280;37697;52.588;13.394;2022-09-02T22:09:42;101502.16;;;13.68;56.31
51617;BME280;37697;52.588;13.394;2022-09-02T22:20:06;101508.72;;;13.58;56.61
51617;BME280;37697;52.588;13.394;2022-09-02T22:25:08;101514.91;;;13.52;56.78
51617;BME280;37697;52.588;13.394;2022-09-02T22:30:15;101512.27;;;13.44;56.82
51617;BME280;37697;52.588;13.394;2022-09-02T22:35:32;101514.30;;;13.39;56.83
51617;BME280;37697;52.588;13.394;2022-09-02T22:40:40;101510.81;;;13.33;57.05
51617;BME280;37697;52.588;13.394;2022-09-02T22:45:50;101515.29;;;13.29;57.21
51617;BME280;37697;52.588;13.394;2022-09-02T22:51:16;101510.44;;;13.21;57.17
51617;BME280;37697;52.588;13.394;2022-09-02T22:56:55;101516.33;;;13.17;57.26
51617;BME280;37697;52.588;13.394;2022-09-02T23:02:24;101520.26;;;13.13;57.45
51617;BME280;37697;52.588;13.394;2022-09-02T23:07:28;101510.66;;;13.08;57.72
51617;BME280;37697;52.588;13.394;2022-09-02T23:12:38;101507.97;;;13.03;57.73
51617;BME280;37697;52.588;13.394;2022-09-02T23:17:56;101508.05;;;12.98;57.94
51617;BME280;37697;52.588;13.394;2022-09-02T23:28:58;101499.64;;;12.86;58.05
51617;BME280;37697;52.588;13.394;2022-09-02T23:34:27;101494.24;;;12.79;57.86
51617;BME280;37697;52.588;13.394;2022-09-02T23:39:52;101494.59;;;12.75;58.11
51617;BME280;37697;52.588;13.394;2022-09-02T23:44:59;101485.51;;;12.71;58.22
